Boca Raton, FL (33432)

2:02 AM EDT on October 22, 2014 (GMT -0400)
Spanish Village | Change Station
CLOSE
Current Station
Personal Weather Station
Location: Boca Raton, FL
Elevation: 13 ft
Nearby Weather Stations

Elev 13 ft 26.36 °N, 80.09 °W | Updated 3 hours ago

Mostly Cloudy
Mostly Cloudy
73.4 °F
Feels Like 70 °F
N
0.0
Wind Variable Wind from WSW
Gusts 0.0 mph

Today
High -- | Low -- °F
--% Chance of Precip.
Yesterday
High -- | Low -- °F
Precip. -- in
7:23 AM 6:45 PM
Waning Crescent, 3% visible
Pressure 29.94 in
Visibility 10.0 miles
Clouds Clear
Heat Index 70 °F
Dew Point 71 °F
Humidity 93%
Rainfall 0.34 in
Snow Depth Not available.
UV 0 out of 12
Pollen 3.20 out of 12
PM2.5 Good
Flu Activity Local Activity
METAR KPMP 220553Z AUTO 29003KT 10SM CLR 24/22 A2993 RMK AO2 SLP136 T02390222 10244 20233 58008

More Conditions Fewer Conditions

Pressure 29.94 in
Visibility 10.0 miles
Clouds Clear
Heat Index 70 °F
Dew Point 71 °F
Humidity 93%
Rainfall 0.34 in
Snow Depth Not available.
UV 0 out of 12
Pollen 3.20 out of 12
PM2.5 Good
Flu Activity Local Activity
METAR KPMP 220553Z AUTO 29003KT 10SM CLR 24/22 A2993 RMK AO2 SLP136 T02390222 10244 20233 58008

More Conditions Fewer Conditions

10-Day Weather Forecast

Almanac

Astronomy

Oct. 22, 2014 Rise Set
Actual Time 7:23 AM EDT 6:45 PM EDT
Civil Twilight 6:59 AM EDT 7:09 PM EDT
Nautical Twilight 6:32 AM EDT 7:36 PM EDT
Astronomical Twilight 6:05 AM EDT 8:03 PM EDT
Moon 6:10 AM EDT 6:06 PM EDT
Length of Visible Light 12h 09m
Length of Day
11h 22m
Tomorrow will be 1m 25s shorter.
Waning Crescent, 3% of the Moon is Illuminated
Today
Waning Crescent
Oct 23
New
Oct 30
First Quarter
Nov 6
Full
Nov 14
Last Quarter

Today's Extremes

State Highs State Lows

Community

WunderPhotos

Upload Photos

1,763,887 photos uploaded!

Nearby

Air Quality

  Air Quality AQ Index Pollutant
Yesterday Good
PM2.5
Yesterday Good
OZONE
Current Good
PM2.5
Wednesday Good
OZONE
Wednesday Good
PM2.5
Thursday Good
OZONE
Thursday Good
PM2.5

Snow Depth

Station Depth Elevation
No new snow has been reported.

Earthquake Activity

City Distance Mag. Time & Date
No recent earthquake activity has been reported nearby.
Minimum magnitude displayed is 2.5.

Coastal Water Temperatures

Place Temperature
Lake Worth, FL 82.0 °F
Virginia Key, FL 81.0 °F

Nearby Weather Stations